createdAt,value
2019-06-01T00:01:42.337Z,99.90
2019-06-01T00:04:11.823Z,99.90
2019-06-01T00:06:41.252Z,99.90
2019-06-01T00:09:10.643Z,99.90
2019-06-01T00:11:41.292Z,99.90
2019-06-01T00:14:10.716Z,99.90
2019-06-01T00:16:40.078Z,99.90
2019-06-01T00:19:12.184Z,99.90
2019-06-01T00:21:41.548Z,99.90
2019-06-01T00:24:10.925Z,99.90
2019-06-01T00:26:41.556Z,99.90
2019-06-01T00:29:11.038Z,99.90
2019-06-01T00:31:41.227Z,99.90
2019-06-01T00:34:10.796Z,99.90
2019-06-01T00:36:41.449Z,99.90
2019-06-01T00:39:11.048Z,99.90
2019-06-01T00:41:41.798Z,99.90
2019-06-01T00:44:11.320Z,99.90
2019-06-01T00:46:40.706Z,99.90
2019-06-01T00:49:10.081Z,99.90
2019-06-01T00:51:39.506Z,99.90
2019-06-01T00:54:10.422Z,99.90
2019-06-01T00:56:39.739Z,99.90
2019-06-01T00:59:09.127Z,99.90
2019-06-01T01:01:38.480Z,99.90
2019-06-01T01:04:07.917Z,99.90
2019-06-01T01:06:37.277Z,99.90
2019-06-01T01:09:08.994Z,99.90
2019-06-01T01:11:38.327Z,99.90
2019-06-01T01:14:07.632Z,99.90
2019-06-01T01:16:36.964Z,99.90
2019-06-01T01:19:06.322Z,99.90
2019-06-01T01:21:35.669Z,99.90
2019-06-01T01:24:04.969Z,99.90
2019-06-01T01:26:34.292Z,99.90
2019-06-01T01:29:03.616Z,99.90
2019-06-01T01:31:33.017Z,99.90
2019-06-01T01:34:02.369Z,99.90
2019-06-01T01:36:33.380Z,99.90
2019-06-01T01:39:02.785Z,99.90
2019-06-01T01:41:33.592Z,99.90
2019-06-01T01:44:02.957Z,99.90
2019-06-01T01:46:32.308Z,99.90
2019-06-01T01:49:02.635Z,99.90
2019-06-01T01:51:32.240Z,99.90
2019-06-01T01:54:04.114Z,99.90
2019-06-01T01:56:32.630Z,99.90
2019-06-01T01:59:04.137Z,99.90
2019-06-01T02:01:33.042Z,99.90
2019-06-01T02:04:03.375Z,99.90
2019-06-01T02:06:32.888Z,99.90
2019-06-01T02:09:21.244Z,99.90
2019-06-01T02:11:51.374Z,99.90
2019-06-01T02:14:20.840Z,99.90
2019-06-01T02:16:50.162Z,99.90
2019-06-01T02:19:19.538Z,99.90
2019-06-01T02:21:48.851Z,99.90
2019-06-01T02:24:18.274Z,99.90
2019-06-01T02:26:47.597Z,99.90
2019-06-01T02:29:16.938Z,99.90
2019-06-01T02:31:46.252Z,99.90
2019-06-01T02:34:15.598Z,99.90
2019-06-01T02:36:44.891Z,99.90
2019-06-01T02:39:15.204Z,99.90
2019-06-01T02:41:44.815Z,99.90
2019-06-01T02:44:14.122Z,99.90
2019-06-01T02:46:43.413Z,99.90
2019-06-01T02:49:12.749Z,99.90
2019-06-01T02:51:42.047Z,99.90
2019-06-01T02:54:11.452Z,99.90
2019-06-01T02:56:40.949Z,99.90
2019-06-01T02:59:10.356Z,99.90
2019-06-01T03:01:55.908Z,99.90
2019-06-01T03:04:11.433Z,99.90
2019-06-01T03:06:43.916Z,99.90
2019-06-01T03:09:23.471Z,99.90
2019-06-01T03:11:55.378Z,99.90
2019-06-01T03:14:27.692Z,99.90
2019-06-01T03:16:59.995Z,99.90
2019-06-01T03:19:31.451Z,99.90
2019-06-01T03:22:04.809Z,99.90
2019-06-01T03:24:37.264Z,99.90
2019-06-01T03:27:06.683Z,99.90
2019-06-01T03:29:41.319Z,99.90
2019-06-01T03:32:29.826Z,99.90
2019-06-01T03:34:41.876Z,99.90
2019-06-01T03:37:11.164Z,99.90
2019-06-01T03:39:40.468Z,99.90
2019-06-01T03:42:09.771Z,99.90
2019-06-01T03:44:39.170Z,99.90
2019-06-01T03:47:09.636Z,99.90
2019-06-01T03:49:39.148Z,99.90
2019-06-01T03:52:08.908Z,99.90
2019-06-01T03:54:38.347Z,99.90
2019-06-01T03:57:07.678Z,99.90
2019-06-01T03:59:36.981Z,99.90
2019-06-01T04:02:07.104Z,99.90
2019-06-01T04:04:36.620Z,99.90
2019-06-01T04:07:06.443Z,99.90
2019-06-01T04:09:35.867Z,99.90
2019-06-01T04:12:05.499Z,99.90
2019-06-01T04:14:35.021Z,99.90
2019-06-01T04:17:04.368Z,99.90
2019-06-01T04:19:33.685Z,99.90
2019-06-01T04:22:04.049Z,99.90
2019-06-01T04:24:33.468Z,99.90
2019-06-01T04:27:04.033Z,99.90
2019-06-01T04:29:33.500Z,99.90
2019-06-01T04:32:02.903Z,99.90
2019-06-01T04:34:35.595Z,99.90
2019-06-01T04:37:05.172Z,99.90
2019-06-01T04:39:34.614Z,99.90
2019-06-01T04:42:04.040Z,99.90
2019-06-01T04:44:33.386Z,99.90
2019-06-01T04:47:02.675Z,99.90
2019-06-01T04:49:32.051Z,99.90
2019-06-01T04:52:01.392Z,99.00
2019-06-01T04:54:30.734Z,97.30
2019-06-01T04:57:00.071Z,95.30
2019-06-01T04:59:29.401Z,94.00
2019-06-01T05:01:58.721Z,94.10
2019-06-01T05:04:28.077Z,94.40
2019-06-01T05:06:57.421Z,94.20
2019-06-01T05:09:26.718Z,93.70
2019-06-01T05:11:56.140Z,93.60
2019-06-01T05:14:25.479Z,93.70
2019-06-01T05:16:54.884Z,92.10
2019-06-01T05:19:24.182Z,90.10
2019-06-01T05:21:55.336Z,85.60
2019-06-01T05:24:24.693Z,82.00
2019-06-01T05:26:55.815Z,78.50
2019-06-01T05:29:25.122Z,75.90
2019-06-01T05:31:54.508Z,71.70
2019-06-01T05:34:23.828Z,67.60
2019-06-01T05:36:53.208Z,65.40
2019-06-01T05:39:22.521Z,62.90
2019-06-01T05:41:51.866Z,59.40
2019-06-01T05:44:21.179Z,59.50
2019-06-01T05:46:50.553Z,57.50
2019-06-01T05:49:19.849Z,56.00
2019-06-01T05:51:49.227Z,55.00
2019-06-01T05:54:18.872Z,53.10
2019-06-01T05:56:48.459Z,51.60
2019-06-01T05:59:18.241Z,50.70
2019-06-01T06:01:47.788Z,49.70
2019-06-01T06:04:17.528Z,48.70
2019-06-01T06:06:47.027Z,47.60
2019-06-01T06:09:17.134Z,47.20
2019-06-01T06:11:46.653Z,47.60
2019-06-01T06:14:15.993Z,47.00
2019-06-01T06:16:45.300Z,46.90
2019-06-01T06:19:17.787Z,46.20
2019-06-01T06:21:45.637Z,46.20
2019-06-01T06:24:14.988Z,46.20
2019-06-01T06:26:44.304Z,46.10
2019-06-01T06:29:14.669Z,45.60
2019-06-01T06:31:44.111Z,46.50
2019-06-01T06:34:13.448Z,45.90
2019-06-01T06:36:42.895Z,45.30
2019-06-01T06:39:12.216Z,44.70
2019-06-01T06:41:41.519Z,44.10
2019-06-01T06:44:10.877Z,43.30
2019-06-01T06:46:40.293Z,42.00
2019-06-01T06:49:10.163Z,41.10
2019-06-01T06:51:39.637Z,40.10
2019-06-01T06:54:09.029Z,39.00
2019-06-01T06:56:38.443Z,39.00
2019-06-01T06:59:07.728Z,38.70
2019-06-01T07:01:37.114Z,37.90
2019-06-01T07:04:12.574Z,37.30
2019-06-01T07:06:37.593Z,37.10
2019-06-01T07:09:07.443Z,36.80
2019-06-01T07:11:37.667Z,37.00
2019-06-01T07:14:07.029Z,36.80
2019-06-01T07:16:36.357Z,36.50
2019-06-01T07:19:05.684Z,35.60
2019-06-01T07:21:35.178Z,35.50
2019-06-01T07:24:04.724Z,35.20
2019-06-01T07:26:34.222Z,34.30
2019-06-01T07:29:03.768Z,33.10
2019-06-01T07:31:33.128Z,32.60
2019-06-01T07:34:02.444Z,32.10
2019-06-01T07:36:32.798Z,33.70
2019-06-01T07:39:02.370Z,33.20
2019-06-01T07:41:33.054Z,32.60
2019-06-01T07:44:02.580Z,32.70
2019-06-01T07:46:33.145Z,32.20
2019-06-01T07:49:02.717Z,32.90
2019-06-01T07:51:32.069Z,33.00
2019-06-01T07:54:01.367Z,31.80
2019-06-01T07:56:30.754Z,33.20
2019-06-01T07:59:00.058Z,33.60
2019-06-01T08:01:30.899Z,33.60
2019-06-01T08:04:00.441Z,32.70
2019-06-01T08:06:31.069Z,32.40
2019-06-01T08:09:00.862Z,32.10
2019-06-01T08:11:33.423Z,32.30
2019-06-01T08:14:03.341Z,31.70
2019-06-01T08:16:32.881Z,32.20
2019-06-01T08:19:02.203Z,33.70
2019-06-01T08:21:32.400Z,33.00
2019-06-01T08:24:02.109Z,33.70
2019-06-01T08:26:32.669Z,33.10
2019-06-01T08:29:02.236Z,32.90
2019-06-01T08:31:32.255Z,32.60
2019-06-01T08:34:02.862Z,32.20
2019-06-01T08:36:33.764Z,31.20
2019-06-01T08:39:05.144Z,30.80
2019-06-01T08:41:34.559Z,30.60
2019-06-01T08:44:03.917Z,30.30
2019-06-01T08:46:33.988Z,29.90
2019-06-01T08:49:03.671Z,29.80
2019-06-01T08:51:34.097Z,29.00
2019-06-01T08:54:03.775Z,30.10
2019-06-01T08:56:34.444Z,30.00
2019-06-01T08:59:03.982Z,30.10
2019-06-01T09:01:34.475Z,30.00
2019-06-01T09:04:04.296Z,29.70
2019-06-01T09:06:33.683Z,29.40
2019-06-01T09:09:06.096Z,28.40
2019-06-01T09:11:35.436Z,28.30
2019-06-01T09:14:05.052Z,28.90
2019-06-01T09:16:35.932Z,29.50
2019-06-01T09:19:05.531Z,29.50
2019-06-01T09:21:35.697Z,29.10
2019-06-01T09:24:05.288Z,29.20
2019-06-01T09:26:35.742Z,29.50
2019-06-01T09:29:05.786Z,28.50
2019-06-01T09:31:36.580Z,28.20
2019-06-01T09:34:06.147Z,27.00
2019-06-01T09:36:36.686Z,26.90
2019-06-01T09:39:08.529Z,26.90
2019-06-01T09:41:37.914Z,26.10
2019-06-01T09:44:07.233Z,25.70
2019-06-01T09:46:37.425Z,25.50
2019-06-01T09:49:06.917Z,25.50
2019-06-01T09:51:37.634Z,25.70
2019-06-01T09:54:07.253Z,26.00
2019-06-01T09:56:38.224Z,25.90
2019-06-01T09:59:07.714Z,25.80
2019-06-01T10:01:37.062Z,25.40
2019-06-01T10:04:07.753Z,24.70
2019-06-01T10:06:37.185Z,24.40
2019-06-01T10:09:09.126Z,24.30
2019-06-01T10:11:38.548Z,24.30
2019-06-01T10:14:07.875Z,25.20
2019-06-01T10:16:38.762Z,25.50
2019-06-01T10:19:12.940Z,24.90
2019-06-01T10:21:42.333Z,24.00
2019-06-01T10:24:12.795Z,23.60
2019-06-01T10:26:42.263Z,23.80
2019-06-01T10:29:11.647Z,23.80
2019-06-01T10:31:41.590Z,23.40
2019-06-01T10:34:11.159Z,23.20
2019-06-01T10:36:40.510Z,23.50
2019-06-01T10:39:09.837Z,23.80
2019-06-01T10:41:39.644Z,24.20
2019-06-01T10:44:09.075Z,24.20
2019-06-01T10:46:40.032Z,24.20
2019-06-01T10:49:09.569Z,25.00
2019-06-01T10:51:40.251Z,25.60
2019-06-01T10:54:09.903Z,24.70
2019-06-01T10:56:40.445Z,25.80
2019-06-01T10:59:10.465Z,26.30
2019-06-01T11:01:40.861Z,26.80
2019-06-01T11:04:10.353Z,27.00
2019-06-01T11:06:45.187Z,27.70
2019-06-01T11:09:10.983Z,28.40
2019-06-01T11:11:41.185Z,29.00
2019-06-01T11:14:10.591Z,29.60
2019-06-01T11:16:41.707Z,30.70
2019-06-01T11:19:11.429Z,32.30
2019-06-01T11:21:41.721Z,32.50
2019-06-01T11:24:11.281Z,33.60
2019-06-01T11:26:41.861Z,34.10
2019-06-01T11:29:11.411Z,34.60
2019-06-01T11:31:42.147Z,35.40
2019-06-01T11:34:11.703Z,36.20
2019-06-01T11:36:58.615Z,36.40
2019-06-01T11:39:12.353Z,36.80
2019-06-01T11:41:42.644Z,37.20
2019-06-01T11:44:12.111Z,37.40
2019-06-01T11:46:42.882Z,37.30
2019-06-01T11:49:12.476Z,37.00
2019-06-01T11:51:43.195Z,36.50
2019-06-01T11:54:13.082Z,36.70
2019-06-01T11:56:43.317Z,37.60
2019-06-01T11:59:12.871Z,37.00
2019-06-01T12:01:44.115Z,37.20
2019-06-01T12:04:13.620Z,38.30
2019-06-01T12:06:44.058Z,38.20
2019-06-01T12:09:13.484Z,37.90
2019-06-01T12:11:44.143Z,37.90
2019-06-01T12:14:13.769Z,37.70
2019-06-01T12:16:43.082Z,37.60
2019-06-01T12:19:12.438Z,37.70
2019-06-01T12:21:42.943Z,37.10
2019-06-01T12:24:12.515Z,37.30
2019-06-01T12:26:41.930Z,37.20
2019-06-01T12:29:11.274Z,37.70
2019-06-01T12:31:41.649Z,37.90
2019-06-01T12:34:11.154Z,38.40
2019-06-01T12:36:41.046Z,38.10
2019-06-01T12:39:11.698Z,38.50
2019-06-01T12:41:41.553Z,38.40
2019-06-01T12:44:15.045Z,38.10
2019-06-01T12:46:44.421Z,38.00
2019-06-01T12:49:13.861Z,38.60
2019-06-01T12:51:44.635Z,38.40
2019-06-01T12:54:14.184Z,39.00
2019-06-01T12:56:44.703Z,38.70
2019-06-01T12:59:14.272Z,37.70
2019-06-01T13:01:43.555Z,38.90
2019-06-01T13:04:12.893Z,38.60
2019-06-01T13:06:42.621Z,38.20
2019-06-01T13:09:12.232Z,38.10
2019-06-01T13:11:41.538Z,38.40
2019-06-01T13:14:10.868Z,37.70
2019-06-01T13:16:43.951Z,37.90
2019-06-01T13:19:11.276Z,37.70
2019-06-01T13:21:41.346Z,38.10
2019-06-01T13:24:11.040Z,39.10
2019-06-01T13:26:41.647Z,38.60
2019-06-01T13:29:11.255Z,38.70
2019-06-01T13:31:41.932Z,39.00
2019-06-01T13:34:11.461Z,39.30
2019-06-01T13:36:40.867Z,39.30
2019-06-01T13:39:10.304Z,39.80
2019-06-01T13:41:39.664Z,40.10
2019-06-01T13:44:08.959Z,40.60
2019-06-01T13:46:38.276Z,40.90
2019-06-01T13:49:10.960Z,40.80
2019-06-01T13:51:40.300Z,40.40
2019-06-01T13:54:09.612Z,39.10
2019-06-01T13:56:38.984Z,38.90
2019-06-01T13:59:08.391Z,38.00
2019-06-01T14:01:37.749Z,38.40
2019-06-01T14:04:07.105Z,38.30
2019-06-01T14:06:36.438Z,39.20
2019-06-01T14:09:07.483Z,38.40
2019-06-01T14:11:38.633Z,38.30
2019-06-01T14:14:08.038Z,38.20
2019-06-01T14:16:37.428Z,38.20
2019-06-01T14:19:07.232Z,38.40
2019-06-01T14:21:36.638Z,39.30
2019-06-01T14:24:05.972Z,39.00
2019-06-01T14:26:35.318Z,38.60
2019-06-01T14:29:04.690Z,39.40
2019-06-01T14:31:34.077Z,39.40
2019-06-01T14:34:05.249Z,39.50
2019-06-01T14:36:34.680Z,38.90
2019-06-01T14:39:05.679Z,39.40
2019-06-01T14:41:35.056Z,39.40
2019-06-01T14:44:04.369Z,40.30
2019-06-01T14:46:34.441Z,40.20
2019-06-01T14:49:03.760Z,39.80
2019-06-01T14:51:33.112Z,40.00
2019-06-01T14:54:02.492Z,40.10
2019-06-01T14:56:31.860Z,40.70
2019-06-01T14:59:02.142Z,41.20
2019-06-01T15:01:33.093Z,40.90
2019-06-01T15:04:02.765Z,41.10
2019-06-01T15:06:32.115Z,41.00
2019-06-01T15:09:15.788Z,40.60
2019-06-01T15:11:32.583Z,40.50
2019-06-01T15:14:01.953Z,39.50
2019-06-01T15:16:32.860Z,39.50
2019-06-01T15:19:02.377Z,39.60
2019-06-01T15:21:31.783Z,40.00
2019-06-01T15:24:02.216Z,39.90
2019-06-01T15:26:31.757Z,39.60
2019-06-01T15:29:01.061Z,39.60
2019-06-01T15:31:30.405Z,40.20
2019-06-01T15:33:59.703Z,40.50
2019-06-01T15:36:29.059Z,40.40
2019-06-01T15:38:59.778Z,40.50
2019-06-01T15:41:29.320Z,40.00
2019-06-01T15:43:59.169Z,40.50
2019-06-01T15:46:28.718Z,40.50
2019-06-01T15:48:58.045Z,40.70
2019-06-01T15:51:27.436Z,41.00
2019-06-01T15:53:56.979Z,40.70
2019-06-01T15:56:26.556Z,40.40
2019-06-01T15:58:58.147Z,40.50
2019-06-01T16:01:26.995Z,40.40
2019-06-01T16:03:57.263Z,40.50
2019-06-01T16:06:27.080Z,40.70
2019-06-01T16:08:57.285Z,40.40
2019-06-01T16:11:26.853Z,40.40
2019-06-01T16:13:56.177Z,40.10
2019-06-01T16:16:25.629Z,39.70
2019-06-01T16:18:59.824Z,39.80
2019-06-01T16:21:26.047Z,39.80
2019-06-01T16:23:56.320Z,39.90
2019-06-01T16:26:25.956Z,39.80
2019-06-01T16:28:56.326Z,39.90
2019-06-01T16:31:25.876Z,40.10
2019-06-01T16:33:56.465Z,40.30
2019-06-01T16:36:25.949Z,40.80
2019-06-01T16:39:01.092Z,41.00
2019-06-01T16:41:26.912Z,40.70
2019-06-01T16:43:57.455Z,40.50
2019-06-01T16:46:26.968Z,40.40
2019-06-01T16:48:57.489Z,40.30
2019-06-01T16:51:26.997Z,40.50
2019-06-01T16:53:56.306Z,40.70
2019-06-01T16:56:25.684Z,40.80
2019-06-01T16:58:56.112Z,40.80
2019-06-01T17:01:25.533Z,40.60
2019-06-01T17:03:54.866Z,40.60
2019-06-01T17:06:24.191Z,41.10
2019-06-01T17:08:53.507Z,41.20
2019-06-01T17:11:22.895Z,41.30
2019-06-01T17:13:52.334Z,41.70
2019-06-01T17:16:21.667Z,41.30
2019-06-01T17:18:51.064Z,41.50
2019-06-01T17:21:20.444Z,41.50
2019-06-01T17:23:49.760Z,42.00
2019-06-01T17:26:19.068Z,41.50
2019-06-01T17:28:48.526Z,41.60
2019-06-01T17:31:17.854Z,41.60
2019-06-01T17:33:47.161Z,41.40
2019-06-01T17:36:16.561Z,41.70
2019-06-01T17:38:45.893Z,41.70
2019-06-01T17:41:15.582Z,41.80
2019-06-01T17:43:44.959Z,41.80
2019-06-01T17:46:14.346Z,41.80
2019-06-01T17:48:44.040Z,41.90
2019-06-01T17:51:13.407Z,42.00
2019-06-01T17:53:42.891Z,42.20
2019-06-01T17:56:12.247Z,41.80
2019-06-01T17:58:41.640Z,42.00
2019-06-01T18:01:12.102Z,42.30
2019-06-01T18:03:41.605Z,42.90
2019-06-01T18:06:12.783Z,42.70
2019-06-01T18:08:42.361Z,42.90
2019-06-01T18:11:12.169Z,43.40
2019-06-01T18:13:41.634Z,42.70
2019-06-01T18:16:13.037Z,42.90
2019-06-01T18:18:42.361Z,43.50
2019-06-01T18:21:12.934Z,43.40
2019-06-01T18:23:42.376Z,43.80
2019-06-01T18:26:13.058Z,44.00
2019-06-01T18:28:42.650Z,44.10
2019-06-01T18:31:12.859Z,44.50
2019-06-01T18:33:42.342Z,44.80
2019-06-01T18:36:11.693Z,45.00
2019-06-01T18:38:41.059Z,45.40
2019-06-01T18:41:16.822Z,45.70
2019-06-01T18:43:41.440Z,46.10
2019-06-01T18:46:12.107Z,46.30
2019-06-01T18:48:41.649Z,46.60
2019-06-01T18:51:12.215Z,47.00
2019-06-01T18:53:41.700Z,47.50
2019-06-01T18:56:12.205Z,47.90
2019-06-01T18:58:41.724Z,47.50
2019-06-01T19:01:11.095Z,48.10
2019-06-01T19:03:40.829Z,48.60
2019-06-01T19:06:10.134Z,48.40
2019-06-01T19:08:39.581Z,48.50
2019-06-01T19:11:28.352Z,48.70
2019-06-01T19:13:41.561Z,49.20
2019-06-01T19:16:12.144Z,49.10
2019-06-01T19:18:41.606Z,49.80
2019-06-01T19:21:10.994Z,50.00
2019-06-01T19:23:40.379Z,50.30
2019-06-01T19:26:12.298Z,50.80
2019-06-01T19:28:41.024Z,50.90
2019-06-01T19:31:11.208Z,51.00
2019-06-01T19:33:40.847Z,51.20
2019-06-01T19:36:11.057Z,51.90
2019-06-01T19:38:41.849Z,52.70
2019-06-01T19:41:11.351Z,52.90
2019-06-01T19:43:40.925Z,53.40
2019-06-01T19:46:10.326Z,54.10
2019-06-01T19:48:39.747Z,55.40
2019-06-01T19:51:10.575Z,55.50
2019-06-01T19:53:41.167Z,56.40
2019-06-01T19:56:10.844Z,57.20
2019-06-01T19:58:40.272Z,57.60
2019-06-01T20:01:10.128Z,58.50
2019-06-01T20:03:39.695Z,59.70
2019-06-01T20:06:09.040Z,60.90
2019-06-01T20:08:38.498Z,61.80
2019-06-01T20:11:08.044Z,63.70
2019-06-01T20:13:40.522Z,65.40
2019-06-01T20:16:10.641Z,68.60
2019-06-01T20:18:40.144Z,72.90
2019-06-01T20:21:09.545Z,77.20
2019-06-01T20:23:39.010Z,81.10
2019-06-01T20:26:08.364Z,86.10
2019-06-01T20:28:37.911Z,91.90
2019-06-01T20:31:07.270Z,94.60
2019-06-01T20:33:36.735Z,96.80
2019-06-01T20:36:06.060Z,99.20
2019-06-01T20:38:35.460Z,99.90
2019-06-01T20:41:04.989Z,99.90
2019-06-01T20:43:34.331Z,99.90
2019-06-01T20:46:03.714Z,99.90
2019-06-01T20:48:33.176Z,99.90
2019-06-01T20:51:03.716Z,99.90
2019-06-01T20:53:34.522Z,99.90
2019-06-01T20:56:03.858Z,99.90
2019-06-01T20:58:33.158Z,99.90
2019-06-01T21:01:02.600Z,99.90
2019-06-01T21:03:31.923Z,99.90
2019-06-01T21:06:01.277Z,99.90
2019-06-01T21:08:30.621Z,99.90
2019-06-01T21:10:59.979Z,99.90
2019-06-01T21:13:29.423Z,99.90
2019-06-01T21:15:58.788Z,99.90
2019-06-01T21:18:28.189Z,99.90
2019-06-01T21:20:57.751Z,99.90
2019-06-01T21:23:27.050Z,99.90
2019-06-01T21:25:56.457Z,99.90
2019-06-01T21:28:26.017Z,99.90
2019-06-01T21:30:55.562Z,99.90
2019-06-01T21:33:28.049Z,99.90
2019-06-01T21:35:56.069Z,99.90
2019-06-01T21:38:25.747Z,99.90
2019-06-01T21:40:55.298Z,99.90
2019-06-01T21:43:33.131Z,99.90
2019-06-01T21:45:55.792Z,99.90
2019-06-01T21:48:25.881Z,99.90
2019-06-01T21:50:55.375Z,99.90
2019-06-01T21:53:24.771Z,99.90
2019-06-01T21:55:54.128Z,99.90
2019-06-01T21:58:24.530Z,99.90
2019-06-01T22:00:54.406Z,99.90
2019-06-01T22:03:25.496Z,99.90
2019-06-01T22:05:55.051Z,99.90
2019-06-01T22:08:25.353Z,99.90
2019-06-01T22:10:54.844Z,99.90
2019-06-01T22:13:25.914Z,99.90
2019-06-01T22:15:55.232Z,99.90
2019-06-01T22:18:25.748Z,99.90
2019-06-01T22:20:55.147Z,99.90
2019-06-01T22:23:24.572Z,99.90
2019-06-01T22:25:53.916Z,99.90
2019-06-01T22:28:24.501Z,99.90
2019-06-01T22:30:53.906Z,99.90
2019-06-01T22:33:24.492Z,99.90
2019-06-01T22:35:53.964Z,99.90
2019-06-01T22:38:23.746Z,99.90
2019-06-01T22:40:53.330Z,99.90
2019-06-01T22:43:38.965Z,99.90
2019-06-01T22:45:59.770Z,99.90
2019-06-01T22:48:29.347Z,99.90
2019-06-01T22:50:58.700Z,99.90
2019-06-01T22:53:28.370Z,99.90
2019-06-01T22:55:57.783Z,99.90
2019-06-01T22:58:29.505Z,99.90
2019-06-01T23:00:59.065Z,99.90
2019-06-01T23:03:28.416Z,99.90
2019-06-01T23:05:57.816Z,99.90
2019-06-01T23:08:27.426Z,99.90
2019-06-01T23:10:56.878Z,99.90
2019-06-01T23:13:26.276Z,99.90
2019-06-01T23:15:55.677Z,99.90
2019-06-01T23:18:25.651Z,99.90
2019-06-01T23:20:55.113Z,99.90
2019-06-01T23:23:24.426Z,99.90
2019-06-01T23:25:53.763Z,99.90
2019-06-01T23:28:24.229Z,99.90
2019-06-01T23:30:53.664Z,99.90
2019-06-01T23:33:22.982Z,99.90
2019-06-01T23:35:52.335Z,99.90
2019-06-01T23:38:22.548Z,99.90
2019-06-01T23:40:52.067Z,99.90
2019-06-01T23:43:22.613Z,99.90
2019-06-01T23:45:52.062Z,99.90
2019-06-01T23:48:21.356Z,99.90
2019-06-01T23:50:50.698Z,99.90
2019-06-01T23:53:20.035Z,99.90
2019-06-01T23:55:51.196Z,99.90
2019-06-01T23:58:20.612Z,99.90
